createdAt,value
2017-12-03T00:01:01.569Z,24.25
2017-12-03T00:02:07.553Z,21.00
2017-12-03T00:03:13.499Z,26.00
2017-12-03T00:04:19.850Z,27.00
2017-12-03T00:05:25.798Z,25.75
2017-12-03T00:06:31.796Z,25.25
2017-12-03T00:07:37.683Z,25.75
2017-12-03T00:08:43.603Z,25.50
2017-12-03T00:09:49.457Z,25.25
2017-12-03T00:10:55.686Z,28.00
2017-12-03T00:12:01.613Z,26.00
2017-12-03T00:13:07.553Z,26.00
2017-12-03T00:14:13.450Z,27.00
2017-12-03T00:15:19.297Z,28.25
2017-12-03T00:16:25.364Z,25.75
2017-12-03T00:17:31.830Z,27.50
2017-12-03T00:18:37.946Z,27.50
2017-12-03T00:19:44.173Z,28.75
2017-12-03T00:20:50.401Z,26.50
2017-12-03T00:21:56.552Z,26.25
2017-12-03T00:23:03.167Z,28.50
2017-12-03T00:24:09.319Z,26.75
2017-12-03T00:25:15.484Z,28.50
2017-12-03T00:26:21.672Z,26.75
2017-12-03T00:27:28.047Z,26.75
2017-12-03T00:28:34.544Z,27.00
2017-12-03T00:29:40.681Z,26.25
2017-12-03T00:30:46.726Z,26.75
2017-12-03T00:31:52.859Z,24.75
2017-12-03T00:32:58.883Z,25.25
2017-12-03T00:34:05.429Z,24.75
2017-12-03T00:35:11.714Z,26.00
2017-12-03T00:36:17.893Z,25.00
2017-12-03T00:37:24.032Z,28.25
2017-12-03T00:38:30.237Z,25.75
2017-12-03T00:39:36.799Z,27.25
2017-12-03T00:40:42.959Z,26.75
2017-12-03T00:41:49.059Z,25.25
2017-12-03T00:42:55.195Z,24.25
2017-12-03T00:44:01.344Z,26.00
2017-12-03T00:45:07.700Z,28.75
2017-12-03T00:46:13.687Z,24.00
2017-12-03T00:47:19.709Z,26.00
2017-12-03T00:48:25.712Z,25.50
2017-12-03T00:49:31.681Z,24.50
2017-12-03T00:50:38.013Z,26.50
2017-12-03T00:51:43.999Z,23.75
2017-12-03T00:52:50.125Z,26.75
2017-12-03T00:53:56.094Z,25.00
2017-12-03T00:55:02.029Z,27.00
2017-12-03T00:56:07.970Z,23.50
2017-12-03T00:57:14.273Z,25.75
2017-12-03T00:58:20.233Z,24.50
2017-12-03T00:59:26.252Z,26.25
2017-12-03T01:00:32.249Z,27.25
2017-12-03T01:01:38.265Z,25.25
2017-12-03T01:02:44.181Z,25.75
2017-12-03T01:03:50.193Z,26.00
2017-12-03T01:04:56.202Z,27.50
2017-12-03T01:06:02.144Z,26.00
2017-12-03T01:07:08.177Z,26.00
2017-12-03T01:08:14.174Z,28.25
2017-12-03T01:09:20.457Z,26.75
2017-12-03T01:10:26.545Z,26.00
2017-12-03T01:11:33.067Z,26.00
2017-12-03T01:12:39.117Z,26.00
2017-12-03T01:13:45.077Z,29.00
2017-12-03T01:14:50.897Z,26.00
2017-12-03T01:15:57.379Z,25.25
2017-12-03T01:17:03.396Z,27.50
2017-12-03T01:18:09.430Z,26.75
2017-12-03T01:19:15.278Z,27.25
2017-12-03T01:20:21.035Z,26.00
2017-12-03T01:21:27.061Z,25.75
2017-12-03T01:22:32.935Z,28.50
2017-12-03T01:23:39.167Z,27.00
2017-12-03T01:24:44.909Z,25.75
2017-12-03T01:25:50.824Z,26.00
2017-12-03T01:26:56.609Z,27.50
2017-12-03T01:28:02.943Z,22.25
2017-12-03T01:29:08.953Z,26.00
2017-12-03T01:30:15.911Z,26.25
2017-12-03T01:31:21.875Z,29.00
2017-12-03T01:32:27.874Z,29.00
2017-12-03T01:33:33.843Z,28.75
2017-12-03T01:34:40.327Z,26.75
2017-12-03T01:35:46.306Z,28.00
2017-12-03T01:36:52.226Z,27.00
2017-12-03T01:37:58.214Z,25.50
2017-12-03T01:39:04.429Z,26.00
2017-12-03T01:40:10.344Z,28.50
2017-12-03T01:41:16.800Z,27.25
2017-12-03T01:42:23.517Z,26.00
2017-12-03T01:43:29.453Z,27.50
2017-12-03T01:44:35.250Z,26.75
2017-12-03T01:45:41.275Z,26.75
2017-12-03T01:46:47.770Z,26.75
2017-12-03T01:47:53.858Z,27.50
2017-12-03T01:48:59.976Z,25.25
2017-12-03T01:50:06.384Z,26.75
2017-12-03T01:51:12.461Z,26.50
2017-12-03T01:52:19.023Z,27.50
2017-12-03T01:53:25.132Z,29.00
2017-12-03T01:54:31.235Z,26.50
2017-12-03T01:55:37.497Z,25.50
2017-12-03T01:56:43.541Z,29.00
2017-12-03T01:57:49.812Z,30.75
2017-12-03T01:58:55.606Z,30.00
2017-12-03T02:00:01.363Z,30.25
2017-12-03T02:01:07.132Z,31.25
2017-12-03T02:02:12.950Z,29.00
2017-12-03T02:03:18.874Z,28.75
2017-12-03T02:04:25.238Z,30.00
2017-12-03T02:05:31.183Z,29.50
2017-12-03T02:06:37.135Z,29.50
2017-12-03T02:07:43.089Z,29.50
2017-12-03T02:08:49.244Z,30.00
2017-12-03T02:09:55.212Z,29.00
2017-12-03T02:11:01.610Z,29.75
2017-12-03T02:12:06.973Z,29.50
2017-12-03T02:13:12.937Z,29.75
2017-12-03T02:14:18.942Z,29.25
2017-12-03T02:15:24.883Z,29.75
2017-12-03T02:16:31.216Z,29.75
2017-12-03T02:17:37.653Z,30.00
2017-12-03T02:18:43.727Z,31.25
2017-12-03T02:19:49.741Z,29.00
2017-12-03T02:20:55.840Z,29.00
2017-12-03T02:22:01.801Z,29.75
2017-12-03T02:23:07.750Z,29.25
2017-12-03T02:24:14.154Z,30.75
2017-12-03T02:25:20.131Z,31.50
2017-12-03T02:26:26.407Z,30.00
2017-12-03T02:27:32.455Z,29.00
2017-12-03T02:28:38.386Z,30.75
2017-12-03T02:29:44.454Z,30.75
2017-12-03T02:30:50.424Z,30.00
2017-12-03T02:31:57.411Z,29.00
2017-12-03T02:33:03.441Z,29.75
2017-12-03T02:34:09.428Z,29.00
2017-12-03T02:35:15.471Z,27.75
2017-12-03T02:36:21.853Z,29.75
2017-12-03T02:37:27.869Z,28.75
2017-12-03T02:38:33.883Z,27.75
2017-12-03T02:39:39.879Z,28.00
2017-12-03T02:40:45.904Z,27.75
2017-12-03T02:41:51.669Z,27.00
2017-12-03T02:42:57.946Z,27.00
2017-12-03T02:44:03.807Z,27.00
2017-12-03T02:45:09.851Z,27.00
2017-12-03T02:46:15.849Z,27.00
2017-12-03T02:47:21.942Z,25.25
2017-12-03T02:48:28.142Z,26.25
2017-12-03T02:49:34.725Z,27.00
2017-12-03T02:50:40.862Z,27.50
2017-12-03T02:51:46.982Z,28.50
2017-12-03T02:52:53.138Z,27.50
2017-12-03T02:53:59.259Z,27.25
2017-12-03T02:55:05.492Z,28.75
2017-12-03T02:56:12.093Z,27.00
2017-12-03T02:57:18.269Z,26.75
2017-12-03T02:58:24.522Z,26.00
2017-12-03T02:59:30.725Z,29.00
2017-12-03T03:00:36.850Z,26.25
2017-12-03T03:01:43.035Z,24.25
2017-12-03T03:02:49.599Z,24.50
2017-12-03T03:03:55.767Z,27.50
2017-12-03T03:05:01.933Z,28.00
2017-12-03T03:06:08.093Z,27.25
2017-12-03T03:07:14.268Z,29.00
2017-12-03T03:08:20.439Z,28.75
2017-12-03T03:09:26.922Z,26.50
2017-12-03T03:10:33.088Z,26.25
2017-12-03T03:11:39.268Z,25.00
2017-12-03T03:12:45.497Z,27.25
2017-12-03T03:13:51.661Z,26.75
2017-12-03T03:14:57.714Z,27.00
2017-12-03T03:16:04.061Z,27.00
2017-12-03T03:17:10.760Z,28.00
2017-12-03T03:18:17.002Z,25.00
2017-12-03T03:19:23.164Z,26.50
2017-12-03T03:20:29.418Z,27.00
2017-12-03T03:21:35.577Z,24.00
2017-12-03T03:22:43.157Z,27.00
2017-12-03T03:23:49.358Z,26.75
2017-12-03T03:24:55.625Z,27.00
2017-12-03T03:26:01.820Z,27.00
2017-12-03T03:27:07.923Z,27.00
2017-12-03T03:28:14.079Z,24.25
2017-12-03T03:29:20.558Z,24.50
2017-12-03T03:30:26.706Z,23.75
2017-12-03T03:31:32.857Z,24.00
2017-12-03T03:32:39.126Z,21.25
2017-12-03T03:33:45.338Z,24.50
2017-12-03T03:34:51.462Z,22.75
2017-12-03T03:35:58.095Z,22.25
2017-12-03T03:37:04.259Z,20.75
2017-12-03T03:38:10.389Z,22.50
2017-12-03T03:39:16.492Z,21.25
2017-12-03T03:40:22.748Z,23.25
2017-12-03T03:41:29.237Z,21.75
2017-12-03T03:42:35.340Z,23.00
2017-12-03T03:43:41.366Z,23.00
2017-12-03T03:44:47.417Z,26.00
2017-12-03T03:45:53.285Z,23.00
2017-12-03T03:46:59.195Z,22.75
2017-12-03T03:48:05.586Z,23.25
2017-12-03T03:49:11.653Z,23.50
2017-12-03T03:50:17.611Z,25.50
2017-12-03T03:51:23.567Z,24.00
2017-12-03T03:52:29.555Z,26.00
2017-12-03T03:53:35.526Z,22.75
2017-12-03T03:54:42.368Z,23.75
2017-12-03T03:55:49.331Z,27.00
2017-12-03T03:56:55.272Z,26.00
2017-12-03T03:58:01.283Z,25.25
2017-12-03T03:59:07.264Z,24.25
2017-12-03T04:00:13.224Z,26.75
2017-12-03T04:01:19.243Z,25.25
2017-12-03T04:02:25.366Z,24.00
2017-12-03T04:03:31.379Z,26.75
2017-12-03T04:04:37.358Z,24.25
2017-12-03T04:05:43.384Z,25.75
2017-12-03T04:06:49.631Z,23.00
2017-12-03T04:07:55.583Z,24.00
2017-12-03T04:09:01.561Z,25.75
2017-12-03T04:10:07.537Z,27.00
2017-12-03T04:11:13.549Z,27.00
2017-12-03T04:12:19.529Z,26.75
2017-12-03T04:13:25.957Z,22.75
2017-12-03T04:14:31.954Z,23.00
2017-12-03T04:15:37.963Z,24.25
2017-12-03T04:16:43.990Z,25.50
2017-12-03T04:17:49.947Z,23.75
2017-12-03T04:18:55.974Z,23.00
2017-12-03T04:20:02.370Z,22.75
2017-12-03T04:21:08.337Z,23.50
2017-12-03T04:22:14.358Z,23.00
2017-12-03T04:23:20.330Z,24.25
2017-12-03T04:24:26.338Z,26.75
2017-12-03T04:25:33.211Z,26.75
2017-12-03T04:26:39.692Z,28.25
2017-12-03T04:27:45.724Z,24.00
2017-12-03T04:28:51.766Z,26.25
2017-12-03T04:29:57.878Z,28.75
2017-12-03T04:31:04.045Z,27.00
2017-12-03T04:32:10.210Z,26.75
2017-12-03T04:33:16.741Z,26.75
2017-12-03T04:34:23.821Z,26.75
2017-12-03T04:35:29.776Z,25.75
2017-12-03T04:36:36.323Z,26.25
2017-12-03T04:37:42.613Z,26.75
2017-12-03T04:38:49.884Z,24.00
2017-12-03T04:39:55.876Z,21.50
2017-12-03T04:41:01.833Z,22.00
2017-12-03T04:42:07.959Z,21.25
2017-12-03T04:43:13.929Z,20.75
2017-12-03T04:44:20.498Z,24.25
2017-12-03T04:45:26.470Z,23.75
2017-12-03T04:46:32.769Z,23.75
2017-12-03T04:47:38.853Z,24.50
2017-12-03T04:48:44.990Z,23.50
2017-12-03T04:49:51.488Z,21.00
2017-12-03T04:50:57.769Z,24.50
2017-12-03T04:52:03.902Z,23.25
2017-12-03T04:53:10.107Z,23.50
2017-12-03T04:54:16.309Z,25.25
2017-12-03T04:55:22.510Z,25.25
2017-12-03T04:56:29.260Z,21.00
2017-12-03T04:57:35.530Z,24.00
2017-12-03T04:58:41.709Z,23.50
2017-12-03T04:59:48.004Z,22.00
2017-12-03T05:00:54.426Z,22.75
2017-12-03T05:02:00.459Z,21.00
2017-12-03T05:03:06.827Z,21.00
2017-12-03T05:04:12.895Z,24.00
2017-12-03T05:05:18.946Z,20.50
2017-12-03T05:06:24.911Z,22.00
2017-12-03T05:07:31.080Z,24.00
2017-12-03T05:08:37.351Z,22.25
2017-12-03T05:09:45.022Z,20.25
2017-12-03T05:10:51.158Z,24.25
2017-12-03T05:11:57.459Z,25.75
2017-12-03T05:13:03.783Z,25.75
2017-12-03T05:14:09.923Z,23.50
2017-12-03T05:15:16.188Z,24.00
2017-12-03T05:16:22.872Z,24.50
2017-12-03T05:17:28.902Z,22.50
2017-12-03T05:18:36.216Z,23.00
2017-12-03T05:19:42.223Z,20.00
2017-12-03T05:20:48.202Z,23.00
2017-12-03T05:21:54.250Z,25.00
2017-12-03T05:23:00.588Z,21.50
2017-12-03T05:24:06.545Z,23.25
2017-12-03T05:25:12.531Z,22.50
2017-12-03T05:26:18.486Z,22.00
2017-12-03T05:27:24.511Z,21.50
2017-12-03T05:28:30.575Z,22.50
2017-12-03T05:29:36.913Z,22.50
2017-12-03T05:30:43.115Z,23.50
2017-12-03T05:31:48.963Z,27.00
2017-12-03T05:32:54.846Z,24.50
2017-12-03T05:34:00.740Z,22.50
2017-12-03T05:35:06.771Z,23.25
2017-12-03T05:36:12.823Z,22.50
2017-12-03T05:37:19.069Z,22.75
2017-12-03T05:38:25.043Z,21.75
2017-12-03T05:39:31.039Z,20.50
2017-12-03T05:40:36.992Z,22.50
2017-12-03T05:41:43.297Z,22.50
2017-12-03T05:42:49.603Z,22.00
2017-12-03T05:43:55.570Z,22.75
2017-12-03T05:45:01.528Z,24.00
2017-12-03T05:46:07.561Z,22.00
2017-12-03T05:47:13.638Z,24.00
2017-12-03T05:48:19.672Z,20.00
2017-12-03T05:49:26.226Z,23.00
2017-12-03T05:50:32.241Z,23.50
2017-12-03T05:51:38.222Z,25.25
2017-12-03T05:52:45.230Z,23.00
2017-12-03T05:53:51.209Z,25.00
2017-12-03T05:54:57.453Z,27.75
2017-12-03T05:56:03.871Z,23.00
2017-12-03T05:57:09.901Z,25.75
2017-12-03T05:58:15.878Z,26.25
2017-12-03T05:59:21.879Z,26.50
2017-12-03T06:00:28.034Z,26.25
2017-12-03T06:01:34.362Z,23.75
2017-12-03T06:02:40.401Z,24.75
2017-12-03T06:03:46.469Z,24.00
2017-12-03T06:04:52.679Z,22.50
2017-12-03T06:05:58.810Z,27.00
2017-12-03T06:07:05.348Z,28.00
2017-12-03T06:08:11.393Z,23.75
2017-12-03T06:09:18.119Z,19.75
2017-12-03T06:10:24.162Z,24.00
2017-12-03T06:11:30.001Z,22.75
2017-12-03T06:12:36.395Z,23.25
2017-12-03T06:13:42.397Z,20.25
2017-12-03T06:14:48.332Z,20.75
2017-12-03T06:15:54.359Z,21.25
2017-12-03T06:17:00.545Z,20.50
2017-12-03T06:18:06.877Z,19.75
2017-12-03T06:19:12.966Z,22.00
2017-12-03T06:20:19.265Z,24.50
2017-12-03T06:21:25.363Z,21.50
2017-12-03T06:22:31.638Z,24.75
2017-12-03T06:23:37.763Z,20.00
2017-12-03T06:24:44.385Z,22.75
2017-12-03T06:25:50.439Z,25.75
2017-12-03T06:26:56.472Z,23.75
2017-12-03T06:28:02.594Z,19.50
2017-12-03T06:29:08.630Z,22.00
2017-12-03T06:30:14.592Z,19.75
2017-12-03T06:31:21.131Z,23.00
2017-12-03T06:32:27.120Z,22.50
2017-12-03T06:33:33.466Z,22.00
2017-12-03T06:34:39.485Z,23.50
2017-12-03T06:35:45.532Z,24.00
2017-12-03T06:36:51.617Z,23.50
2017-12-03T06:37:58.012Z,22.00
2017-12-03T06:39:04.505Z,24.00
2017-12-03T06:40:13.231Z,23.75
2017-12-03T06:41:19.529Z,23.00
2017-12-03T06:42:25.585Z,19.75
2017-12-03T06:43:31.594Z,21.75
2017-12-03T06:44:38.091Z,22.50
2017-12-03T06:45:44.098Z,21.75
2017-12-03T06:46:50.155Z,21.50
2017-12-03T06:47:56.301Z,20.50
2017-12-03T06:49:02.366Z,22.25
2017-12-03T06:50:08.357Z,19.00
2017-12-03T06:51:14.833Z,21.25
2017-12-03T06:52:21.677Z,24.75
2017-12-03T06:53:27.769Z,24.75
2017-12-03T06:54:33.793Z,23.00
2017-12-03T06:55:39.817Z,23.75
2017-12-03T06:56:45.801Z,21.75
2017-12-03T06:57:52.189Z,19.75
2017-12-03T06:58:58.234Z,20.50
2017-12-03T07:00:04.148Z,18.25
2017-12-03T07:01:10.115Z,23.00
2017-12-03T07:02:16.210Z,24.00
2017-12-03T07:03:22.280Z,22.50
2017-12-03T07:04:28.699Z,19.50
2017-12-03T07:05:35.001Z,23.75
2017-12-03T07:06:41.009Z,20.25
2017-12-03T07:07:47.058Z,21.75
2017-12-03T07:08:53.068Z,20.00
2017-12-03T07:09:59.189Z,19.75
2017-12-03T07:11:05.224Z,21.75
2017-12-03T07:12:11.279Z,22.25
2017-12-03T07:13:17.318Z,19.50
2017-12-03T07:14:23.349Z,19.75
2017-12-03T07:15:29.366Z,22.25
2017-12-03T07:16:35.490Z,23.50
2017-12-03T07:17:41.903Z,22.75
2017-12-03T07:18:48.018Z,23.00
2017-12-03T07:19:54.046Z,19.75
2017-12-03T07:21:00.196Z,22.25
2017-12-03T07:22:06.219Z,22.00
2017-12-03T07:23:12.274Z,20.50
2017-12-03T07:24:18.814Z,20.00
2017-12-03T07:25:24.838Z,20.00
2017-12-03T07:26:30.770Z,19.75
2017-12-03T07:27:36.813Z,20.75
2017-12-03T07:28:44.078Z,21.75
2017-12-03T07:29:50.582Z,20.50
2017-12-03T07:30:56.551Z,19.75
2017-12-03T07:32:02.591Z,21.00
2017-12-03T07:33:08.778Z,22.50
2017-12-03T07:34:15.530Z,24.00
2017-12-03T07:35:21.839Z,21.00
2017-12-03T07:36:27.700Z,23.75
2017-12-03T07:37:33.849Z,24.00
2017-12-03T07:38:40.154Z,20.00
2017-12-03T07:39:46.459Z,20.50
2017-12-03T07:40:53.006Z,23.50
2017-12-03T07:41:59.159Z,25.50
2017-12-03T07:43:05.255Z,23.25
2017-12-03T07:44:11.388Z,20.00
2017-12-03T07:45:17.471Z,21.50
2017-12-03T07:46:23.835Z,22.50
2017-12-03T07:47:29.818Z,21.50
2017-12-03T07:48:35.997Z,24.00
2017-12-03T07:49:42.036Z,23.00
2017-12-03T07:50:48.139Z,21.75
2017-12-03T07:51:54.611Z,21.25
2017-12-03T07:53:00.875Z,23.50
2017-12-03T07:54:07.183Z,24.75
2017-12-03T07:55:13.172Z,20.75
2017-12-03T07:56:19.197Z,22.25
2017-12-03T07:57:25.685Z,22.50
2017-12-03T07:58:31.722Z,22.75
2017-12-03T07:59:37.745Z,20.25
2017-12-03T08:00:44.230Z,23.00
2017-12-03T08:01:50.316Z,23.00
2017-12-03T08:02:56.761Z,24.00
2017-12-03T08:04:02.779Z,22.75
2017-12-03T08:05:08.774Z,21.75
2017-12-03T08:06:14.863Z,21.50
2017-12-03T08:07:20.887Z,23.00
2017-12-03T08:08:27.448Z,22.75
2017-12-03T08:09:33.699Z,22.00
2017-12-03T08:10:39.776Z,22.00
2017-12-03T08:11:45.784Z,23.25
2017-12-03T08:12:51.870Z,20.25
2017-12-03T08:13:57.897Z,21.50
2017-12-03T08:15:03.913Z,22.00
2017-12-03T08:16:10.464Z,20.50
2017-12-03T08:17:20.182Z,21.25
2017-12-03T08:18:26.544Z,22.25
2017-12-03T08:19:32.390Z,22.50
2017-12-03T08:20:38.375Z,22.75
2017-12-03T08:21:44.945Z,22.00
2017-12-03T08:22:50.860Z,27.00
2017-12-03T08:23:57.164Z,29.75
2017-12-03T08:25:03.161Z,28.50
2017-12-03T08:26:09.349Z,22.00
2017-12-03T08:27:15.653Z,25.25
2017-12-03T08:28:22.628Z,26.75
2017-12-03T08:29:28.789Z,20.75
2017-12-03T08:30:34.657Z,20.00
2017-12-03T08:31:40.473Z,23.25
2017-12-03T08:32:46.859Z,23.75
2017-12-03T08:33:52.913Z,21.75
2017-12-03T08:34:58.985Z,23.75
2017-12-03T08:36:05.034Z,19.50
2017-12-03T08:37:11.033Z,20.25
2017-12-03T08:38:17.032Z,19.50
2017-12-03T08:39:23.305Z,20.00
2017-12-03T08:40:29.314Z,20.50
2017-12-03T08:41:35.348Z,27.00
2017-12-03T08:42:41.447Z,24.50
2017-12-03T08:43:47.487Z,24.25
2017-12-03T08:45:02.590Z,25.25
2017-12-03T08:46:11.416Z,27.00
2017-12-03T08:47:17.862Z,20.50
2017-12-03T08:48:23.992Z,24.50
2017-12-03T08:49:30.045Z,25.00
2017-12-03T08:50:37.242Z,26.25
2017-12-03T08:51:43.622Z,25.75
2017-12-03T08:52:50.026Z,26.75
2017-12-03T08:53:57.096Z,23.75
2017-12-03T08:55:03.091Z,23.75
2017-12-03T08:56:10.088Z,24.75
2017-12-03T08:57:16.189Z,21.00
2017-12-03T08:58:22.700Z,24.00
2017-12-03T08:59:28.726Z,26.50
2017-12-03T09:00:34.870Z,27.00
2017-12-03T09:01:41.002Z,25.75
2017-12-03T09:02:47.023Z,25.25
2017-12-03T09:03:52.985Z,23.75
2017-12-03T09:04:59.271Z,24.75
2017-12-03T09:06:05.220Z,25.00
2017-12-03T09:07:11.284Z,28.00
2017-12-03T09:08:17.361Z,25.75
2017-12-03T09:09:23.642Z,26.50
2017-12-03T09:10:29.709Z,25.50
2017-12-03T09:11:36.082Z,26.25
2017-12-03T09:12:42.090Z,25.00
2017-12-03T09:13:48.182Z,25.75
2017-12-03T09:14:54.369Z,23.50
2017-12-03T09:16:00.570Z,22.75
2017-12-03T09:17:06.676Z,24.75
2017-12-03T09:18:13.113Z,25.50
2017-12-03T09:19:19.162Z,25.75
2017-12-03T09:20:25.237Z,27.00
2017-12-03T09:21:31.277Z,23.00
2017-12-03T09:22:37.258Z,24.75
2017-12-03T09:23:43.282Z,23.00
2017-12-03T09:24:49.750Z,26.00
2017-12-03T09:25:55.813Z,24.00
2017-12-03T09:27:01.861Z,27.00
2017-12-03T09:28:07.977Z,26.00
2017-12-03T09:29:14.109Z,25.50
2017-12-03T09:30:20.023Z,24.25
2017-12-03T09:31:26.361Z,24.00
2017-12-03T09:32:32.277Z,25.00
2017-12-03T09:33:38.201Z,26.75
2017-12-03T09:34:44.264Z,26.25
2017-12-03T09:35:50.279Z,26.00
2017-12-03T09:36:56.283Z,24.00
2017-12-03T09:38:02.430Z,23.00
2017-12-03T09:39:08.584Z,27.00
2017-12-03T09:40:15.773Z,26.50
2017-12-03T09:41:21.777Z,25.00
2017-12-03T09:42:27.966Z,26.00
2017-12-03T09:43:34.660Z,24.50
2017-12-03T09:44:41.070Z,24.00
2017-12-03T09:45:46.952Z,29.75
2017-12-03T09:46:53.028Z,25.00
2017-12-03T09:47:59.046Z,26.50
2017-12-03T09:49:05.141Z,25.25
2017-12-03T09:50:11.194Z,24.50
2017-12-03T09:51:17.012Z,23.25
2017-12-03T09:52:23.073Z,25.25
2017-12-03T09:53:29.254Z,20.50
2017-12-03T09:54:35.309Z,24.25
2017-12-03T09:55:41.434Z,24.50
2017-12-03T09:56:47.786Z,25.25
2017-12-03T09:57:54.258Z,24.00
2017-12-03T09:59:00.330Z,24.00
2017-12-03T10:00:06.442Z,22.25
2017-12-03T10:01:12.543Z,22.00
2017-12-03T10:02:18.677Z,23.00
2017-12-03T10:03:24.790Z,23.75
2017-12-03T10:04:31.393Z,23.00
2017-12-03T10:05:37.495Z,23.25
2017-12-03T10:06:43.568Z,24.25
2017-12-03T10:07:49.522Z,23.25
2017-12-03T10:08:55.539Z,23.50
2017-12-03T10:10:01.705Z,23.00
2017-12-03T10:11:07.883Z,23.75
2017-12-03T10:12:14.000Z,25.25
2017-12-03T10:13:20.202Z,22.50
2017-12-03T10:14:26.428Z,24.25
2017-12-03T10:15:32.564Z,24.00
2017-12-03T10:16:38.839Z,25.25
2017-12-03T10:17:44.850Z,23.25
2017-12-03T10:18:51.001Z,26.75
2017-12-03T10:19:56.986Z,24.50
2017-12-03T10:21:03.063Z,26.25
2017-12-03T10:22:09.112Z,26.75
2017-12-03T10:23:15.512Z,25.75
2017-12-03T10:24:21.646Z,27.25
2017-12-03T10:25:27.688Z,24.50
2017-12-03T10:26:33.870Z,26.00
2017-12-03T10:27:39.969Z,26.75
2017-12-03T10:28:46.287Z,26.75
2017-12-03T10:29:53.085Z,26.00
2017-12-03T10:30:59.197Z,25.50
2017-12-03T10:32:05.286Z,27.00
2017-12-03T10:33:11.481Z,26.75
2017-12-03T10:34:17.701Z,26.00
2017-12-03T10:35:23.933Z,27.00
2017-12-03T10:36:30.471Z,26.50
2017-12-03T10:37:41.452Z,27.75
2017-12-03T10:38:47.638Z,28.25
2017-12-03T10:39:53.877Z,27.00
2017-12-03T10:41:00.201Z,27.25
2017-12-03T10:42:06.518Z,28.50
2017-12-03T10:43:13.098Z,26.25
2017-12-03T10:44:19.443Z,27.50
2017-12-03T10:45:25.649Z,25.75
2017-12-03T10:46:32.400Z,23.75
2017-12-03T10:47:38.548Z,21.75
2017-12-03T10:48:44.632Z,19.75
2017-12-03T10:49:51.110Z,27.75
2017-12-03T10:50:57.279Z,20.75
2017-12-03T10:52:03.463Z,25.50
2017-12-03T10:53:09.495Z,28.00
2017-12-03T10:54:15.499Z,27.50
2017-12-03T10:55:21.479Z,29.00
2017-12-03T10:56:27.933Z,25.75
2017-12-03T10:57:34.004Z,23.75
2017-12-03T10:58:40.199Z,25.00
2017-12-03T10:59:46.242Z,24.25
2017-12-03T11:00:52.225Z,24.00
2017-12-03T11:01:58.376Z,26.75
2017-12-03T11:03:04.732Z,23.75
2017-12-03T11:04:10.695Z,24.75
2017-12-03T11:05:16.688Z,28.25
2017-12-03T11:06:22.679Z,26.00
2017-12-03T11:07:28.808Z,27.25
2017-12-03T11:08:35.130Z,29.50
2017-12-03T11:09:41.209Z,28.50
2017-12-03T11:10:47.348Z,30.00
2017-12-03T11:11:53.392Z,29.00
2017-12-03T11:12:59.514Z,22.75
2017-12-03T11:14:05.606Z,25.25
2017-12-03T11:15:12.047Z,24.50
2017-12-03T11:16:18.055Z,24.75
2017-12-03T11:17:24.187Z,22.75
2017-12-03T11:18:30.326Z,23.25
2017-12-03T11:19:36.420Z,23.75
2017-12-03T11:20:42.463Z,27.00
2017-12-03T11:21:48.823Z,27.00
2017-12-03T11:22:54.916Z,25.75
2017-12-03T11:24:01.098Z,26.25
2017-12-03T11:25:07.164Z,26.75
2017-12-03T11:26:13.247Z,26.75
2017-12-03T11:27:19.262Z,21.75
2017-12-03T11:28:25.596Z,24.50
2017-12-03T11:29:32.002Z,24.25
2017-12-03T11:30:38.059Z,22.50
2017-12-03T11:31:44.243Z,21.75
2017-12-03T11:32:50.379Z,21.75
2017-12-03T11:33:56.473Z,20.50
2017-12-03T11:35:03.057Z,20.50
2017-12-03T11:36:09.166Z,20.00
2017-12-03T11:37:15.380Z,19.25
2017-12-03T11:38:21.594Z,24.75
2017-12-03T11:39:27.993Z,24.25
2017-12-03T11:40:34.013Z,23.00
2017-12-03T11:41:40.620Z,22.00
2017-12-03T11:42:46.861Z,24.25
2017-12-03T11:43:53.182Z,23.25
2017-12-03T11:44:59.244Z,26.25
2017-12-03T11:46:05.379Z,26.50
2017-12-03T11:47:11.529Z,26.25
2017-12-03T11:48:18.005Z,26.75
2017-12-03T11:49:24.861Z,26.75
2017-12-03T11:50:31.178Z,26.75
2017-12-03T11:51:37.980Z,26.75
2017-12-03T11:52:44.576Z,26.75
2017-12-03T11:53:51.289Z,26.75
2017-12-03T11:54:57.489Z,27.75
2017-12-03T11:56:03.761Z,27.50
2017-12-03T11:57:10.129Z,26.75
2017-12-03T11:58:16.190Z,23.50
2017-12-03T11:59:22.271Z,27.00
2017-12-03T12:00:28.872Z,25.50
2017-12-03T12:01:34.951Z,24.00
2017-12-03T12:02:40.933Z,24.00
2017-12-03T12:03:47.009Z,23.50
2017-12-03T12:04:53.022Z,26.75
2017-12-03T12:05:59.067Z,26.25
2017-12-03T12:07:05.421Z,27.75
2017-12-03T12:08:11.519Z,25.50
2017-12-03T12:09:17.539Z,26.25
2017-12-03T12:10:23.606Z,26.00
2017-12-03T12:11:29.585Z,26.00
2017-12-03T12:12:35.362Z,26.00
2017-12-03T12:13:41.610Z,24.00
2017-12-03T12:14:47.572Z,25.75
2017-12-03T12:15:53.503Z,24.25
2017-12-03T12:16:59.415Z,26.00
2017-12-03T12:18:06.377Z,23.75
2017-12-03T12:19:13.258Z,25.00
2017-12-03T12:20:19.732Z,23.25
2017-12-03T12:21:25.872Z,24.75
2017-12-03T12:22:32.406Z,26.75
2017-12-03T12:23:38.439Z,24.50
2017-12-03T12:24:44.790Z,27.25
2017-12-03T12:25:50.926Z,26.00
2017-12-03T12:26:57.312Z,25.75
2017-12-03T12:28:03.268Z,24.00
2017-12-03T12:29:09.509Z,25.00
2017-12-03T12:30:15.572Z,25.75
2017-12-03T12:31:21.677Z,26.75
2017-12-03T12:32:27.749Z,26.75
2017-12-03T12:33:34.099Z,26.00
2017-12-03T12:34:40.471Z,27.25
2017-12-03T12:35:46.813Z,29.00
2017-12-03T12:36:54.031Z,26.50
2017-12-03T12:38:00.564Z,27.75
2017-12-03T12:39:06.950Z,26.75
2017-12-03T12:40:13.780Z,24.00
2017-12-03T12:41:19.839Z,27.25
2017-12-03T12:42:26.091Z,28.50
2017-12-03T12:43:32.338Z,29.00
2017-12-03T12:44:38.582Z,28.75
2017-12-03T12:45:44.654Z,28.50
2017-12-03T12:46:51.310Z,27.25
2017-12-03T12:47:57.584Z,27.50
2017-12-03T12:49:03.856Z,27.75
2017-12-03T12:50:10.053Z,29.00
2017-12-03T12:51:16.350Z,28.00
2017-12-03T12:52:22.529Z,27.75
2017-12-03T12:53:28.917Z,28.75
2017-12-03T12:54:35.119Z,29.25
2017-12-03T12:55:41.289Z,27.50
2017-12-03T12:56:47.591Z,26.75
2017-12-03T12:57:53.827Z,26.00
2017-12-03T12:59:00.323Z,29.00
2017-12-03T13:00:06.073Z,29.00
2017-12-03T13:01:12.781Z,28.75
2017-12-03T13:02:19.031Z,27.25
2017-12-03T13:03:25.320Z,26.75
2017-12-03T13:04:31.825Z,28.50
2017-12-03T13:05:38.369Z,29.00
2017-12-03T13:06:44.633Z,27.50
2017-12-03T13:07:50.907Z,28.50
2017-12-03T13:08:57.202Z,23.00
2017-12-03T13:10:04.046Z,24.50
2017-12-03T13:11:10.365Z,26.00
2017-12-03T13:12:16.559Z,41.00
2017-12-03T13:13:22.840Z,26.75
2017-12-03T13:14:29.251Z,29.00
2017-12-03T13:15:35.461Z,28.25
2017-12-03T13:16:41.976Z,26.25
2017-12-03T13:17:48.115Z,21.25
2017-12-03T13:18:54.212Z,24.00
2017-12-03T13:20:00.272Z,26.50
2017-12-03T13:21:06.630Z,24.25
2017-12-03T13:22:12.964Z,24.25
2017-12-03T13:23:19.202Z,22.00
2017-12-03T13:24:25.411Z,25.25
2017-12-03T13:25:31.640Z,20.50
2017-12-03T13:26:37.951Z,23.00
2017-12-03T13:27:44.212Z,25.75
2017-12-03T13:28:50.442Z,21.25
2017-12-03T13:29:56.721Z,20.75
2017-12-03T13:31:03.095Z,23.50
2017-12-03T13:32:09.441Z,23.50
2017-12-03T13:33:15.699Z,24.75
2017-12-03T13:34:22.278Z,24.50
2017-12-03T13:35:28.439Z,26.75
2017-12-03T13:36:34.798Z,24.00
2017-12-03T13:37:41.573Z,28.25
2017-12-03T13:38:47.947Z,28.50
2017-12-03T13:39:54.310Z,28.00
2017-12-03T13:41:01.093Z,25.50
2017-12-03T13:42:07.515Z,24.25
2017-12-03T13:43:13.888Z,23.75
2017-12-03T13:44:20.184Z,29.75
2017-12-03T13:45:26.491Z,25.25
2017-12-03T13:46:32.903Z,25.75
2017-12-03T13:47:39.519Z,25.25
2017-12-03T13:48:45.863Z,23.75
2017-12-03T13:49:52.221Z,24.25
2017-12-03T13:50:58.372Z,20.75
2017-12-03T13:52:04.654Z,21.50
2017-12-03T13:53:10.886Z,23.75
2017-12-03T13:54:17.410Z,22.00
2017-12-03T13:55:23.585Z,21.50
2017-12-03T13:56:30.114Z,22.00
2017-12-03T13:57:36.414Z,22.50
2017-12-03T13:58:43.098Z,21.75
2017-12-03T13:59:49.536Z,20.50
2017-12-03T14:00:56.227Z,24.50
2017-12-03T14:02:02.522Z,21.75
2017-12-03T14:03:08.923Z,22.00
2017-12-03T14:04:15.398Z,26.00
2017-12-03T14:05:21.772Z,21.75
2017-12-03T14:06:28.528Z,17.25
2017-12-03T14:07:34.913Z,21.00
2017-12-03T14:08:41.294Z,23.00
2017-12-03T14:09:47.811Z,22.50
2017-12-03T14:10:54.107Z,21.50
2017-12-03T14:12:00.426Z,19.75
2017-12-03T14:13:07.185Z,24.50